createdAt,value
2018-04-18T00:00:44.575Z,99.90
2018-04-18T00:03:12.123Z,99.90
2018-04-18T00:05:39.682Z,99.90
2018-04-18T00:08:07.222Z,99.90
2018-04-18T00:10:34.793Z,99.90
2018-04-18T00:13:02.335Z,99.90
2018-04-18T00:15:29.903Z,99.90
2018-04-18T00:17:57.447Z,99.90
2018-04-18T00:20:25.018Z,99.90
2018-04-18T00:22:52.605Z,99.90
2018-04-18T00:25:20.165Z,99.90
2018-04-18T00:27:47.703Z,99.90
2018-04-18T00:30:15.272Z,99.90
2018-04-18T00:32:42.806Z,99.90
2018-04-18T00:35:10.366Z,99.90
2018-04-18T00:37:37.902Z,99.90
2018-04-18T00:42:39.882Z,99.90
2018-04-18T00:45:08.240Z,99.90
2018-04-18T00:47:35.784Z,99.90
2018-04-18T00:50:03.357Z,99.90
2018-04-18T00:52:30.902Z,99.90
2018-04-18T00:54:58.471Z,99.90
2018-04-18T00:57:26.012Z,99.90
2018-04-18T00:59:53.584Z,99.90
2018-04-18T01:02:21.133Z,99.90
2018-04-18T01:04:53.478Z,99.90
2018-04-18T01:07:21.023Z,99.90
2018-04-18T01:09:49.350Z,99.90
2018-04-18T01:12:16.897Z,99.90
2018-04-18T01:14:44.476Z,99.90
2018-04-18T01:17:12.029Z,99.90
2018-04-18T01:19:39.604Z,99.90
2018-04-18T01:22:07.151Z,99.90
2018-04-18T01:24:34.715Z,99.90
2018-04-18T01:27:02.255Z,99.90
2018-04-18T01:29:29.819Z,99.90
2018-04-18T01:31:57.377Z,99.90
2018-04-18T01:34:24.906Z,99.90
2018-04-18T01:36:52.479Z,99.90
2018-04-18T01:39:20.018Z,99.90
2018-04-18T01:41:47.607Z,99.90
2018-04-18T01:44:16.020Z,99.90
2018-04-18T01:46:43.604Z,99.90
2018-04-18T01:49:20.824Z,99.90
2018-04-18T01:51:48.395Z,99.90
2018-04-18T01:54:15.963Z,99.90
2018-04-18T01:56:43.536Z,99.90
2018-04-18T01:59:11.091Z,99.90
2018-04-18T02:01:38.662Z,99.90
2018-04-18T02:04:06.213Z,99.90
2018-04-18T02:06:33.766Z,99.90
2018-04-18T02:09:01.323Z,99.90
2018-04-18T02:11:28.895Z,99.90
2018-04-18T02:13:56.447Z,99.90
2018-04-18T02:16:24.019Z,99.90
2018-04-18T02:18:51.568Z,99.90
2018-04-18T02:21:19.135Z,99.90
2018-04-18T02:23:46.682Z,99.90
2018-04-18T02:26:14.256Z,99.90
2018-04-18T02:28:41.802Z,99.90
2018-04-18T02:31:09.382Z,99.90
2018-04-18T02:33:36.919Z,99.90
2018-04-18T02:36:04.482Z,99.90
2018-04-18T02:38:32.035Z,99.90
2018-04-18T02:40:59.624Z,99.90
2018-04-18T02:43:27.163Z,99.90
2018-04-18T02:45:54.737Z,99.90
2018-04-18T02:48:22.298Z,99.90
2018-04-18T02:50:49.874Z,99.90
2018-04-18T02:53:18.187Z,99.90
2018-04-18T02:55:45.747Z,99.90
2018-04-18T02:58:13.282Z,99.90
2018-04-18T03:00:40.857Z,99.90
2018-04-18T03:03:08.404Z,99.90
2018-04-18T03:05:35.978Z,99.90
2018-04-18T03:08:03.541Z,99.90
2018-04-18T03:10:31.106Z,99.90
2018-04-18T03:12:58.652Z,99.90
2018-04-18T03:15:26.203Z,99.90
2018-04-18T03:17:53.765Z,99.90
2018-04-18T03:20:24.327Z,99.90
2018-04-18T03:22:51.890Z,99.90
2018-04-18T03:25:19.442Z,99.90
2018-04-18T03:27:47.016Z,99.90
2018-04-18T03:30:14.575Z,99.90
2018-04-18T03:32:42.135Z,99.90
2018-04-18T03:35:09.685Z,99.90
2018-04-18T03:37:37.252Z,99.90
2018-04-18T03:40:04.787Z,99.90
2018-04-18T03:42:32.357Z,99.90
2018-04-18T03:44:59.900Z,99.90
2018-04-18T03:47:27.527Z,99.90
2018-04-18T03:49:55.040Z,99.90
2018-04-18T03:52:22.616Z,99.90
2018-04-18T03:54:50.160Z,99.90
2018-04-18T03:57:17.732Z,99.90
2018-04-18T03:59:45.288Z,99.90
2018-04-18T04:02:12.863Z,99.90
2018-04-18T04:04:40.402Z,99.90
2018-04-18T04:07:07.977Z,99.90
2018-04-18T04:09:35.528Z,99.90
2018-04-18T04:12:03.099Z,99.90
2018-04-18T04:14:30.641Z,99.90
2018-04-18T04:17:10.052Z,99.90
2018-04-18T04:19:49.345Z,99.90
2018-04-18T04:22:29.506Z,99.90
2018-04-18T04:24:57.803Z,99.90
2018-04-18T04:27:25.382Z,99.90
2018-04-18T04:29:52.923Z,99.90
2018-04-18T04:32:20.487Z,99.90
2018-04-18T04:34:48.030Z,99.90
2018-04-18T04:37:16.401Z,99.90
2018-04-18T04:39:44.716Z,99.90
2018-04-18T04:42:12.288Z,99.90
2018-04-18T04:44:39.834Z,99.90
2018-04-18T04:47:07.395Z,99.90
2018-04-18T04:49:34.938Z,99.90
2018-04-18T04:52:02.509Z,99.90
2018-04-18T04:54:30.088Z,99.90
2018-04-18T04:56:57.659Z,99.90
2018-04-18T04:59:25.221Z,99.90
2018-04-18T05:01:52.768Z,99.90
2018-04-18T05:04:20.335Z,99.90
2018-04-18T05:06:47.881Z,99.90
2018-04-18T05:09:15.448Z,99.90
2018-04-18T05:11:42.988Z,99.90
2018-04-18T05:14:10.554Z,99.90
2018-04-18T05:16:38.113Z,99.90
2018-04-18T05:19:05.678Z,99.90
2018-04-18T05:21:33.206Z,99.90
2018-04-18T05:24:00.889Z,99.90
2018-04-18T05:26:28.443Z,99.90
2018-04-18T05:28:56.013Z,99.90
2018-04-18T05:31:23.566Z,99.90
2018-04-18T05:33:51.143Z,99.90
2018-04-18T05:36:18.689Z,99.90
2018-04-18T05:38:46.254Z,99.90
2018-04-18T05:41:13.812Z,99.90
2018-04-18T05:43:41.388Z,99.90
2018-04-18T05:46:08.955Z,99.90
2018-04-18T05:48:36.560Z,99.90
2018-04-18T05:51:04.924Z,99.90
2018-04-18T05:53:32.472Z,99.90
2018-04-18T05:56:00.019Z,99.90
2018-04-18T05:58:29.103Z,99.90
2018-04-18T06:00:57.416Z,99.90
2018-04-18T06:03:25.760Z,99.90
2018-04-18T06:05:53.327Z,99.90
2018-04-18T06:08:20.898Z,99.90
2018-04-18T06:10:48.447Z,99.90
2018-04-18T06:13:16.006Z,99.90
2018-04-18T06:15:43.570Z,99.90
2018-04-18T06:18:11.151Z,99.90
2018-04-18T06:20:39.467Z,99.90
2018-04-18T06:23:07.039Z,99.90
2018-04-18T06:25:34.591Z,99.90
2018-04-18T06:28:02.171Z,99.90
2018-04-18T06:30:29.728Z,99.90
2018-04-18T06:32:57.303Z,99.90
2018-04-18T06:35:24.879Z,99.90
2018-04-18T06:37:52.427Z,99.90
2018-04-18T06:40:19.995Z,99.90
2018-04-18T06:42:47.548Z,99.90
2018-04-18T06:45:15.127Z,99.90
2018-04-18T06:47:43.440Z,99.90
2018-04-18T06:50:11.031Z,99.90
2018-04-18T06:52:38.570Z,99.90
2018-04-18T06:55:06.138Z,99.90
2018-04-18T06:57:34.486Z,99.90
2018-04-18T07:00:02.069Z,99.90
2018-04-18T07:02:29.616Z,99.90
2018-04-18T07:04:57.190Z,99.80
2018-04-18T07:07:24.740Z,99.40
2018-04-18T07:09:52.402Z,99.30
2018-04-18T07:12:19.951Z,98.70
2018-04-18T07:14:47.523Z,98.70
2018-04-18T07:17:15.072Z,98.40
2018-04-18T07:19:42.645Z,98.00
2018-04-18T07:22:10.193Z,98.00
2018-04-18T07:24:37.768Z,98.00
2018-04-18T07:27:05.320Z,97.50
2018-04-18T07:29:32.894Z,97.30
2018-04-18T07:32:00.441Z,97.10
2018-04-18T07:34:28.012Z,97.00
2018-04-18T07:36:55.554Z,96.40
2018-04-18T07:39:23.128Z,96.10
2018-04-18T07:41:50.675Z,95.70
2018-04-18T07:44:18.858Z,95.70
2018-04-18T07:46:46.408Z,95.30
2018-04-18T07:49:13.965Z,95.10
2018-04-18T07:51:42.693Z,94.90
2018-04-18T07:54:10.259Z,94.60
2018-04-18T07:56:37.818Z,94.20
2018-04-18T07:59:05.396Z,94.10
2018-04-18T08:01:33.711Z,93.90
2018-04-18T08:04:01.293Z,93.90
2018-04-18T08:06:28.902Z,93.60
2018-04-18T08:08:57.228Z,93.00
2018-04-18T08:11:24.803Z,93.00
2018-04-18T08:13:52.352Z,92.60
2018-04-18T08:16:19.928Z,92.40
2018-04-18T08:18:47.488Z,92.20
2018-04-18T08:21:15.076Z,91.90
2018-04-18T08:23:43.388Z,91.20
2018-04-18T08:26:10.964Z,91.20
2018-04-18T08:28:38.520Z,91.00
2018-04-18T08:31:06.082Z,90.70
2018-04-18T08:33:33.633Z,90.60
2018-04-18T08:36:01.218Z,90.20
2018-04-18T08:38:28.770Z,90.00
2018-04-18T08:40:56.338Z,88.50
2018-04-18T08:43:23.887Z,88.20
2018-04-18T08:45:51.448Z,87.70
2018-04-18T08:48:19.005Z,85.80
2018-04-18T08:50:46.793Z,84.50
2018-04-18T08:53:14.347Z,81.40
2018-04-18T08:55:41.920Z,79.10
2018-04-18T08:58:10.257Z,73.40
2018-04-18T09:00:37.835Z,73.30
2018-04-18T09:03:05.388Z,69.40
2018-04-18T09:05:32.967Z,67.50
2018-04-18T09:08:00.520Z,66.40
2018-04-18T09:10:28.090Z,63.50
2018-04-18T09:12:55.636Z,62.60
2018-04-18T09:15:23.209Z,61.50
2018-04-18T09:17:50.757Z,59.90
2018-04-18T09:20:18.337Z,59.00
2018-04-18T09:22:46.663Z,57.20
2018-04-18T09:25:14.239Z,57.20
2018-04-18T09:27:41.790Z,56.50
2018-04-18T09:30:09.345Z,55.60
2018-04-18T09:32:36.890Z,54.90
2018-04-18T09:35:04.436Z,54.30
2018-04-18T09:37:31.992Z,53.50
2018-04-18T09:39:59.542Z,52.80
2018-04-18T09:42:27.151Z,51.50
2018-04-18T09:44:54.731Z,50.60
2018-04-18T09:47:22.304Z,49.40
2018-04-18T09:49:50.611Z,48.60
2018-04-18T09:52:18.180Z,48.60
2018-04-18T09:54:45.723Z,48.70
2018-04-18T09:57:13.303Z,48.40
2018-04-18T09:59:40.846Z,47.10
2018-04-18T10:05:18.891Z,46.20
2018-04-18T10:07:46.469Z,46.20
2018-04-18T10:10:14.024Z,45.30
2018-04-18T10:12:41.597Z,44.50
2018-04-18T10:15:09.139Z,44.50
2018-04-18T10:17:36.699Z,44.20
2018-04-18T10:20:04.237Z,43.90
2018-04-18T10:22:31.806Z,43.60
2018-04-18T10:24:59.355Z,42.20
2018-04-18T10:27:26.932Z,42.20
2018-04-18T10:29:54.494Z,41.50
2018-04-18T10:32:22.073Z,41.20
2018-04-18T10:34:49.609Z,42.50
2018-04-18T10:37:17.178Z,42.00
2018-04-18T10:39:44.714Z,41.50
2018-04-18T10:42:12.282Z,40.60
2018-04-18T10:44:39.827Z,41.30
2018-04-18T10:47:07.407Z,41.30
2018-04-18T10:49:34.968Z,41.20
2018-04-18T10:52:02.536Z,40.40
2018-04-18T10:54:30.139Z,40.20
2018-04-18T10:56:58.482Z,38.40
2018-04-18T10:59:26.058Z,38.30
2018-04-18T11:01:53.682Z,38.10
2018-04-18T11:04:21.235Z,39.50
2018-04-18T11:06:48.815Z,39.60
2018-04-18T11:09:16.367Z,38.10
2018-04-18T11:11:43.941Z,38.20
2018-04-18T11:14:11.484Z,37.40
2018-04-18T11:16:39.036Z,37.90
2018-04-18T11:19:06.615Z,38.60
2018-04-18T11:21:34.165Z,38.20
2018-04-18T11:24:01.725Z,38.90
2018-04-18T11:26:29.267Z,38.90
2018-04-18T11:28:56.840Z,38.50
2018-04-18T11:31:24.388Z,38.00
2018-04-18T11:33:51.954Z,38.20
2018-04-18T11:36:19.499Z,38.30
2018-04-18T11:38:47.075Z,38.50
2018-04-18T11:41:14.623Z,37.70
2018-04-18T11:43:42.198Z,36.90
2018-04-18T11:48:44.399Z,36.40
2018-04-18T11:51:11.940Z,36.40
2018-04-18T11:53:39.511Z,37.10
2018-04-18T11:56:07.806Z,37.70
2018-04-18T11:58:35.368Z,37.10
2018-04-18T12:01:02.929Z,37.00
2018-04-18T12:03:30.503Z,36.80
2018-04-18T12:05:58.047Z,36.30
2018-04-18T12:08:25.603Z,36.40
2018-04-18T12:10:53.480Z,35.80
2018-04-18T12:13:21.054Z,36.20
2018-04-18T12:15:49.365Z,36.20
2018-04-18T12:18:16.947Z,36.10
2018-04-18T12:20:44.493Z,36.20
2018-04-18T12:23:12.072Z,36.80
2018-04-18T12:25:40.382Z,35.90
2018-04-18T12:28:08.732Z,36.10
2018-04-18T12:30:36.297Z,36.10
2018-04-18T12:33:03.889Z,36.20
2018-04-18T12:35:32.232Z,36.50
2018-04-18T12:37:59.774Z,36.40
2018-04-18T12:40:27.343Z,35.40
2018-04-18T12:42:54.900Z,34.70
2018-04-18T12:45:22.464Z,35.20
2018-04-18T12:47:50.021Z,34.70
2018-04-18T12:50:17.592Z,34.40
2018-04-18T12:52:45.145Z,34.80
2018-04-18T12:55:12.713Z,34.40
2018-04-18T12:57:40.281Z,34.10
2018-04-18T13:00:07.849Z,34.30
2018-04-18T13:02:35.395Z,34.00
2018-04-18T13:05:02.956Z,34.90
2018-04-18T13:07:30.509Z,34.40
2018-04-18T13:09:58.116Z,34.80
2018-04-18T13:12:25.667Z,34.30
2018-04-18T13:14:54.003Z,34.30
2018-04-18T13:17:21.550Z,34.30
2018-04-18T13:19:49.875Z,34.50
2018-04-18T13:22:18.179Z,34.60
2018-04-18T13:24:45.750Z,34.60
2018-04-18T13:27:14.320Z,34.50
2018-04-18T13:29:41.891Z,34.50
2018-04-18T13:32:09.434Z,34.20
2018-04-18T13:34:37.010Z,34.30
2018-04-18T13:37:04.572Z,34.30
2018-04-18T13:39:32.131Z,35.10
2018-04-18T13:41:59.658Z,34.70
2018-04-18T13:44:27.983Z,34.80
2018-04-18T13:46:55.532Z,34.80
2018-04-18T13:49:23.090Z,34.50
2018-04-18T13:51:50.631Z,34.70
2018-04-18T13:54:18.194Z,34.60
2018-04-18T13:56:45.744Z,34.80
2018-04-18T13:59:13.343Z,34.40
2018-04-18T14:01:40.906Z,34.20
2018-04-18T14:04:08.482Z,33.70
2018-04-18T14:06:36.032Z,33.50
2018-04-18T14:09:03.578Z,33.00
2018-04-18T14:11:31.133Z,33.10
2018-04-18T14:13:58.674Z,32.80
2018-04-18T14:16:26.244Z,33.30
2018-04-18T14:18:53.783Z,32.50
2018-04-18T14:21:21.365Z,32.80
2018-04-18T14:23:48.916Z,32.40
2018-04-18T14:26:16.501Z,31.80
2018-04-18T14:28:44.048Z,32.20
2018-04-18T14:31:11.617Z,32.90
2018-04-18T14:33:39.172Z,31.80
2018-04-18T14:36:06.759Z,31.70
2018-04-18T14:38:34.355Z,31.70
2018-04-18T14:41:01.945Z,31.60
2018-04-18T14:43:29.486Z,31.70
2018-04-18T14:45:57.047Z,31.70
2018-04-18T14:48:24.582Z,31.70
2018-04-18T14:50:52.909Z,31.00
2018-04-18T14:53:20.455Z,31.00
2018-04-18T14:55:48.042Z,31.00
2018-04-18T14:58:16.375Z,30.50
2018-04-18T15:00:43.961Z,30.50
2018-04-18T15:03:11.503Z,30.20
2018-04-18T15:05:39.077Z,30.50
2018-04-18T15:08:06.626Z,29.50
2018-04-18T15:10:34.214Z,30.00
2018-04-18T15:13:01.760Z,29.20
2018-04-18T15:15:29.341Z,29.40
2018-04-18T15:17:56.886Z,29.40
2018-04-18T15:20:24.443Z,30.00
2018-04-18T15:22:52.870Z,29.90
2018-04-18T15:25:20.432Z,29.90
2018-04-18T15:27:48.005Z,29.90
2018-04-18T15:30:15.572Z,29.80
2018-04-18T15:32:43.140Z,29.90
2018-04-18T15:35:10.683Z,30.20
2018-04-18T15:37:38.257Z,30.10
2018-04-18T15:40:05.806Z,29.50
2018-04-18T15:42:33.398Z,29.40
2018-04-18T15:45:00.949Z,29.50
2018-04-18T15:47:28.511Z,29.70
2018-04-18T15:49:56.054Z,29.80
2018-04-18T15:52:23.629Z,30.00
2018-04-18T15:54:51.176Z,29.90
2018-04-18T15:57:18.743Z,30.20
2018-04-18T15:59:46.289Z,29.90
2018-04-18T16:02:13.861Z,30.00
2018-04-18T16:04:41.857Z,30.00
2018-04-18T16:07:09.419Z,29.70
2018-04-18T16:09:36.983Z,29.60
2018-04-18T16:12:04.561Z,29.40
2018-04-18T16:14:32.882Z,28.70
2018-04-18T16:17:00.456Z,28.70
2018-04-18T16:19:28.761Z,28.10
2018-04-18T16:21:56.326Z,28.20
2018-04-18T16:24:24.597Z,27.70
2018-04-18T16:26:52.178Z,27.60
2018-04-18T16:29:32.275Z,27.40
2018-04-18T16:31:59.842Z,27.40
2018-04-18T16:34:27.385Z,27.90
2018-04-18T16:36:54.960Z,27.50
2018-04-18T16:39:22.522Z,27.40
2018-04-18T16:41:50.090Z,27.50
2018-04-18T16:44:17.649Z,27.40
2018-04-18T16:46:45.184Z,27.30
2018-04-18T16:49:12.765Z,26.90
2018-04-18T16:51:40.315Z,27.10
2018-04-18T16:54:07.879Z,26.70
2018-04-18T16:56:35.473Z,27.30
2018-04-18T16:59:03.798Z,27.00
2018-04-18T17:01:31.359Z,27.00
2018-04-18T17:03:58.929Z,27.10
2018-04-18T17:06:26.482Z,27.40
2018-04-18T17:08:54.052Z,27.40
2018-04-18T17:11:21.599Z,27.50
2018-04-18T17:13:49.174Z,27.50
2018-04-18T17:16:16.714Z,27.80
2018-04-18T17:18:44.289Z,27.70
2018-04-18T17:21:11.825Z,27.90
2018-04-18T17:23:39.403Z,27.80
2018-04-18T17:26:06.952Z,27.70
2018-04-18T17:28:34.540Z,28.00
2018-04-18T17:31:02.098Z,28.10
2018-04-18T17:33:29.660Z,28.20
2018-04-18T17:35:57.209Z,28.30
2018-04-18T17:38:25.020Z,28.30
2018-04-18T17:40:53.593Z,28.80
2018-04-18T17:43:21.141Z,28.80
2018-04-18T17:45:48.686Z,29.10
2018-04-18T17:48:16.258Z,29.30
2018-04-18T17:50:43.881Z,29.80
2018-04-18T17:53:11.455Z,30.80
2018-04-18T17:55:39.003Z,32.00
2018-04-18T17:58:06.583Z,33.10
2018-04-18T18:00:34.134Z,34.30
2018-04-18T18:03:01.717Z,35.20
2018-04-18T18:05:29.263Z,36.50
2018-04-18T18:07:56.929Z,37.80
2018-04-18T18:10:24.484Z,38.50
2018-04-18T18:12:52.037Z,39.30
2018-04-18T18:15:19.602Z,40.10
2018-04-18T18:17:47.150Z,40.40
2018-04-18T18:20:14.717Z,41.70
2018-04-18T18:22:42.262Z,41.50
2018-04-18T18:25:09.835Z,42.20
2018-04-18T18:27:37.384Z,42.40
2018-04-18T18:30:04.963Z,44.40
2018-04-18T18:32:32.513Z,45.20
2018-04-18T18:35:00.091Z,47.10
2018-04-18T18:37:27.647Z,47.30
2018-04-18T18:39:55.219Z,48.40
2018-04-18T18:42:22.766Z,49.10
2018-04-18T18:44:50.336Z,49.00
2018-04-18T18:47:17.883Z,49.40
2018-04-18T18:49:45.496Z,50.60
2018-04-18T18:52:13.047Z,51.70
2018-04-18T18:54:41.379Z,50.40
2018-04-18T18:57:08.928Z,50.40
2018-04-18T18:59:36.495Z,51.80
2018-04-18T19:02:04.039Z,52.60
2018-04-18T19:04:32.367Z,53.90
2018-04-18T19:07:00.674Z,54.40
2018-04-18T19:09:28.234Z,54.40
2018-04-18T19:11:55.793Z,55.20
2018-04-18T19:14:23.365Z,55.50
2018-04-18T19:16:50.919Z,55.60
2018-04-18T19:19:18.475Z,55.70
2018-04-18T19:21:46.039Z,56.20
2018-04-18T19:24:14.614Z,56.60
2018-04-18T19:26:42.159Z,56.80
2018-04-18T19:29:09.722Z,57.60
2018-04-18T19:31:37.273Z,58.50
2018-04-18T19:34:05.613Z,59.60
2018-04-18T19:36:33.184Z,59.60
2018-04-18T19:39:00.748Z,60.20
2018-04-18T19:41:28.343Z,60.20
2018-04-18T19:43:55.888Z,61.90
2018-04-18T19:46:24.219Z,63.40
2018-04-18T19:48:51.756Z,63.30
2018-04-18T19:51:19.323Z,63.20
2018-04-18T19:53:46.896Z,63.50
2018-04-18T19:56:14.473Z,64.30
2018-04-18T19:58:42.011Z,64.30
2018-04-18T20:01:09.887Z,64.70
2018-04-18T20:03:37.450Z,65.80
2018-04-18T20:06:05.034Z,66.40
2018-04-18T20:08:33.351Z,66.30
2018-04-18T20:11:00.943Z,66.30
2018-04-18T20:13:28.514Z,67.90
2018-04-18T20:15:56.097Z,68.70
2018-04-18T20:18:24.408Z,69.60
2018-04-18T20:20:51.985Z,69.60
2018-04-18T20:23:19.539Z,71.00
2018-04-18T20:25:47.116Z,71.90
2018-04-18T20:28:14.669Z,71.20
2018-04-18T20:30:42.242Z,70.90
2018-04-18T20:33:09.810Z,71.90
2018-04-18T20:35:37.409Z,73.00
2018-04-18T20:38:05.025Z,74.20
2018-04-18T20:40:32.548Z,75.10
2018-04-18T20:43:00.105Z,76.70
2018-04-18T20:45:27.682Z,76.80
2018-04-18T20:47:55.237Z,78.40
2018-04-18T20:50:22.822Z,78.70
2018-04-18T20:52:50.368Z,80.60
2018-04-18T20:55:17.950Z,81.40
2018-04-18T20:57:45.502Z,81.50
2018-04-18T21:00:13.080Z,82.50
2018-04-18T21:02:40.645Z,83.90
2018-04-18T21:05:09.028Z,85.10
2018-04-18T21:07:37.367Z,85.20
2018-04-18T21:10:04.961Z,85.30
2018-04-18T21:12:33.270Z,88.40
2018-04-18T21:15:00.855Z,87.60
2018-04-18T21:17:28.396Z,89.20
2018-04-18T21:19:55.970Z,90.10
2018-04-18T21:22:23.519Z,90.50
2018-04-18T21:24:51.071Z,91.60
2018-04-18T21:27:18.643Z,92.10
2018-04-18T21:29:46.183Z,92.40
2018-04-18T21:32:13.752Z,92.60
2018-04-18T21:34:41.440Z,92.50
2018-04-18T21:37:09.088Z,92.60
2018-04-18T21:39:36.665Z,92.60
2018-04-18T21:42:04.236Z,92.70
2018-04-18T21:44:31.795Z,92.70
2018-04-18T21:46:59.370Z,93.30
2018-04-18T21:49:26.911Z,93.10
2018-04-18T21:51:54.471Z,93.10
2018-04-18T21:54:22.026Z,93.20
2018-04-18T21:56:49.599Z,93.10
2018-04-18T21:59:17.150Z,93.30
2018-04-18T22:01:44.724Z,93.50
2018-04-18T22:04:12.288Z,93.60
2018-04-18T22:06:39.863Z,94.30
2018-04-18T22:09:08.172Z,95.30
2018-04-18T22:11:35.756Z,95.30
2018-04-18T22:14:03.294Z,95.40
2018-04-18T22:16:30.872Z,95.50
2018-04-18T22:18:58.418Z,95.40
2018-04-18T22:21:26.001Z,95.50
2018-04-18T22:23:53.558Z,95.60
2018-04-18T22:26:21.141Z,95.80
2018-04-18T22:28:48.684Z,96.10
2018-04-18T22:31:16.256Z,96.10
2018-04-18T22:33:43.816Z,96.40
2018-04-18T22:36:11.390Z,96.40
2018-04-18T22:38:39.709Z,96.50
2018-04-18T22:41:07.292Z,96.50
2018-04-18T22:43:34.871Z,96.70
2018-04-18T22:46:02.428Z,96.80
2018-04-18T22:48:29.981Z,97.30
2018-04-18T22:50:57.555Z,97.90
2018-04-18T22:53:25.103Z,97.90
2018-04-18T22:55:52.672Z,97.80
2018-04-18T22:58:20.223Z,97.80
2018-04-18T23:00:48.874Z,98.00
2018-04-18T23:03:16.415Z,98.20
2018-04-18T23:05:43.971Z,98.30
2018-04-18T23:08:11.550Z,98.20
2018-04-18T23:10:39.099Z,98.50
2018-04-18T23:13:06.681Z,98.50
2018-04-18T23:15:34.234Z,98.70
2018-04-18T23:18:01.808Z,98.80
2018-04-18T23:20:29.368Z,98.70
2018-04-18T23:22:56.940Z,98.80
2018-04-18T23:25:24.494Z,99.10
2018-04-18T23:27:52.076Z,99.10
2018-04-18T23:30:19.636Z,99.10
2018-04-18T23:32:47.230Z,99.40
2018-04-18T23:35:14.786Z,99.50
2018-04-18T23:37:42.366Z,99.30
2018-04-18T23:40:09.920Z,99.30
2018-04-18T23:42:37.542Z,99.70
2018-04-18T23:45:05.079Z,99.40
2018-04-18T23:47:32.642Z,99.30
2018-04-18T23:50:00.202Z,99.10
2018-04-18T23:52:27.766Z,98.90
2018-04-18T23:54:55.323Z,99.30
2018-04-18T23:57:22.896Z,99.90
2018-04-18T23:59:51.220Z,99.90
